createdAt,value
2023-04-01T00:00:59.503Z,99038.81
2023-04-01T00:04:03.269Z,99052.38
2023-04-01T00:07:05.595Z,99040.59
2023-04-01T00:10:09.772Z,99023.41
2023-04-01T00:13:12.134Z,99021.59
2023-04-01T00:16:21.842Z,99041.78
2023-04-01T00:19:24.940Z,99048.63
2023-04-01T00:22:27.442Z,99043.81
2023-04-01T00:25:30.383Z,99031.13
2023-04-01T00:28:35.248Z,99039.03
2023-04-01T00:31:37.725Z,99035.31
2023-04-01T00:34:40.931Z,99040.78
2023-04-01T00:37:43.189Z,99045.06
2023-04-01T00:40:47.712Z,99038.25
2023-04-01T00:43:52.211Z,99033.75
2023-04-01T00:46:54.958Z,99020.88
2023-04-01T00:49:57.232Z,99037.72
2023-04-01T00:53:01.821Z,99018.69
2023-04-01T00:56:10.813Z,99032.38
2023-04-01T00:59:17.120Z,99018.59
2023-04-01T01:02:20.506Z,99008.50
2023-04-01T01:05:48.448Z,99019.81
2023-04-01T01:09:16.299Z,99021.19
2023-04-01T01:12:42.263Z,99018.56
2023-04-01T01:16:05.087Z,99026.41
2023-04-01T01:19:32.695Z,99014.97
2023-04-01T01:22:43.651Z,99027.53
2023-04-01T01:25:53.655Z,99017.28
2023-04-01T01:29:01.814Z,99021.94
2023-04-01T01:32:10.415Z,99022.72
2023-04-01T01:35:47.214Z,99008.59
2023-04-01T01:38:55.011Z,99003.78
2023-04-01T01:42:01.003Z,99022.38
2023-04-01T01:45:06.442Z,99020.97
2023-04-01T01:48:10.300Z,99028.84
2023-04-01T01:51:12.724Z,99014.63
2023-04-01T01:54:18.066Z,99014.63
2023-04-01T01:57:29.523Z,99007.50
2023-04-01T02:00:36.439Z,99012.97
2023-04-01T02:03:40.802Z,99013.06
2023-04-01T02:06:53.508Z,99009.97
2023-04-01T02:09:56.502Z,99004.72
2023-04-01T02:13:02.842Z,99010.44
2023-04-01T02:16:14.683Z,99008.13
2023-04-01T02:19:23.722Z,99012.00
2023-04-01T02:22:30.872Z,99003.78
2023-04-01T02:25:36.980Z,99005.47
2023-04-01T02:28:42.504Z,98995.09
2023-04-01T02:31:45.148Z,99003.56
2023-04-01T02:34:49.033Z,98994.13
2023-04-01T02:37:54.892Z,98989.63
2023-04-01T02:41:00.657Z,98987.66
2023-04-01T02:44:04.080Z,98983.41
2023-04-01T02:47:06.488Z,98984.09
2023-04-01T02:50:09.795Z,98987.63
2023-04-01T02:53:12.403Z,98971.41
2023-04-01T02:56:14.648Z,98969.44
2023-04-01T02:59:16.927Z,98986.41
2023-04-01T03:02:19.584Z,98985.09
2023-04-01T03:05:22.299Z,98995.28
2023-04-01T03:08:24.563Z,98997.00
2023-04-01T03:11:27.244Z,98990.13
2023-04-01T03:14:29.633Z,99000.03
2023-04-01T03:17:32.609Z,98997.25
2023-04-01T03:20:35.595Z,98983.78
2023-04-01T03:23:37.890Z,98990.38
2023-04-01T03:26:40.338Z,98979.13
2023-04-01T03:29:42.709Z,99002.63
2023-04-01T03:32:45.397Z,99010.72
2023-04-01T03:35:47.752Z,99009.16
2023-04-01T03:38:53.406Z,99012.06
2023-04-01T03:42:02.941Z,99014.38
2023-04-01T03:45:06.375Z,99016.53
2023-04-01T03:48:08.789Z,99023.63
2023-04-01T03:51:11.045Z,99027.50
2023-04-01T03:54:13.415Z,99026.06
2023-04-01T03:57:15.735Z,99022.78
2023-04-01T04:00:18.284Z,99030.94
2023-04-01T04:03:27.365Z,99028.31
2023-04-01T04:06:30.376Z,99030.50
2023-04-01T04:09:33.090Z,99025.50
2023-04-01T04:12:35.621Z,99041.72
2023-04-01T04:15:37.841Z,99036.25
2023-04-01T04:18:42.719Z,99040.94
2023-04-01T04:21:45.201Z,99040.53
2023-04-01T04:24:47.606Z,99033.72
2023-04-01T04:27:50.660Z,99038.88
2023-04-01T04:30:53.657Z,99035.31
2023-04-01T04:33:56.376Z,99034.94
2023-04-01T04:36:58.698Z,99032.50
2023-04-01T04:40:06.310Z,99020.84
2023-04-01T04:43:12.443Z,99022.28
2023-04-01T04:46:14.939Z,99026.19
2023-04-01T04:49:17.687Z,99028.13
2023-04-01T04:52:20.019Z,99026.69
2023-04-01T04:55:22.302Z,99036.00
2023-04-01T04:58:34.830Z,99028.00
2023-04-01T05:01:37.878Z,99026.22
2023-04-01T05:04:40.482Z,99021.16
2023-04-01T05:07:45.433Z,99027.38
2023-04-01T05:10:48.266Z,99024.22
2023-04-01T05:13:51.607Z,99034.03
2023-04-01T05:16:55.446Z,99035.34
2023-04-01T05:19:58.453Z,99031.66
2023-04-01T05:23:02.057Z,99027.25
2023-04-01T05:26:11.630Z,99029.19
2023-04-01T05:29:14.014Z,99027.16
2023-04-01T05:32:17.500Z,99036.03
2023-04-01T05:35:19.811Z,99035.41
2023-04-01T05:38:22.696Z,99027.34
2023-04-01T05:41:25.765Z,99027.66
2023-04-01T05:44:28.094Z,99044.25
2023-04-01T05:47:50.439Z,99031.84
2023-04-01T05:50:53.635Z,99032.88
2023-04-01T05:53:55.871Z,99034.75
2023-04-01T05:56:58.116Z,99039.75
2023-04-01T06:00:00.474Z,99042.50
2023-04-01T06:03:03.004Z,99038.78
2023-04-01T06:06:16.636Z,99042.06
2023-04-01T06:09:26.773Z,99039.06
2023-04-01T06:12:43.223Z,99035.16
2023-04-01T06:16:14.953Z,99038.00
2023-04-01T06:19:39.864Z,99039.16
2023-04-01T06:22:57.831Z,99038.69
2023-04-01T06:26:17.893Z,99031.25
2023-04-01T06:29:39.281Z,99035.06
2023-04-01T06:33:23.479Z,99036.41
2023-04-01T06:36:38.803Z,99039.72
2023-04-01T06:39:53.396Z,99046.22
2023-04-01T06:43:02.095Z,99051.75
2023-04-01T06:46:50.559Z,99042.97
2023-04-01T06:50:36.146Z,99061.31
2023-04-01T06:54:10.328Z,99051.75
2023-04-01T06:57:56.351Z,99056.69
2023-04-01T07:01:03.790Z,99061.47
2023-04-01T07:04:17.590Z,99062.97
2023-04-01T07:07:38.901Z,99064.75
2023-04-01T07:10:44.897Z,99060.81
2023-04-01T07:14:26.784Z,99043.97
2023-04-01T07:17:33.836Z,99054.28
2023-04-01T07:20:39.841Z,99055.72
2023-04-01T07:23:46.748Z,99064.69
2023-04-01T07:27:12.917Z,99048.63
2023-04-01T07:30:22.321Z,99060.84
2023-04-01T07:33:45.425Z,99057.47
2023-04-01T07:36:55.463Z,99052.75
2023-04-01T07:40:13.204Z,99064.69
2023-04-01T07:43:51.803Z,99067.97
2023-04-01T07:47:27.964Z,99067.91
2023-04-01T07:50:33.880Z,99067.56
2023-04-01T07:53:50.462Z,99064.47
2023-04-01T07:57:03.273Z,99056.38
2023-04-01T08:00:50.187Z,99062.78
2023-04-01T08:04:24.720Z,99067.72
2023-04-01T08:07:37.502Z,99064.88
2023-04-01T08:11:02.831Z,99065.25
2023-04-01T08:14:26.629Z,99067.78
2023-04-01T08:17:59.247Z,99075.56
2023-04-01T08:21:37.884Z,99072.63
2023-04-01T08:24:50.721Z,99071.69
2023-04-01T08:28:17.077Z,99070.78
2023-04-01T08:31:41.458Z,99070.38
2023-04-01T08:34:49.344Z,99060.47
2023-04-01T08:38:22.702Z,99058.19
2023-04-01T08:41:34.068Z,99074.81
2023-04-01T08:45:28.537Z,99067.06
2023-04-01T08:48:48.037Z,99064.13
2023-04-01T08:51:59.888Z,99067.53
2023-04-01T08:55:45.375Z,99076.47
2023-04-01T08:59:11.973Z,99069.19
2023-04-01T09:02:28.152Z,99081.44
2023-04-01T09:05:46.677Z,99080.03
2023-04-01T09:09:07.017Z,99077.69
2023-04-01T09:13:08.291Z,99074.03
2023-04-01T09:16:36.902Z,99070.56
2023-04-01T09:20:01.047Z,99070.38
2023-04-01T09:23:06.914Z,99067.34
2023-04-01T09:26:29.094Z,99064.84
2023-04-01T09:29:44.330Z,99063.03
2023-04-01T09:32:58.744Z,99060.78
2023-04-01T09:36:06.417Z,99069.31
2023-04-01T09:39:38.471Z,99072.19
2023-04-01T09:43:04.773Z,99068.53
2023-04-01T09:46:51.765Z,99076.16
2023-04-01T09:50:13.403Z,99072.91
2023-04-01T09:53:29.716Z,99083.56
2023-04-01T09:56:44.150Z,99062.13
2023-04-01T10:00:08.121Z,99079.03
2023-04-01T10:03:40.871Z,99073.97
2023-04-01T10:07:37.517Z,99069.13
2023-04-01T10:10:52.303Z,99079.41
2023-04-01T10:14:07.816Z,99081.44
2023-04-01T10:17:34.841Z,99078.31
2023-04-01T10:21:16.034Z,99085.31
2023-04-01T10:24:31.672Z,99091.06
2023-04-01T10:27:41.243Z,99084.16
2023-04-01T10:31:33.324Z,99085.53
2023-04-01T10:35:03.263Z,99095.22
2023-04-01T10:38:36.578Z,99085.53
2023-04-01T10:42:03.351Z,99088.31
2023-04-01T10:45:49.227Z,99088.09
2023-04-01T10:49:16.461Z,99087.09
2023-04-01T10:52:35.983Z,99078.91
2023-04-01T10:56:10.998Z,99080.13
2023-04-01T11:00:25.891Z,99079.00
2023-04-01T11:04:12.484Z,99068.22
2023-04-01T11:07:36.414Z,99067.38
2023-04-01T11:11:14.828Z,99061.53
2023-04-01T11:14:49.113Z,99051.59
2023-04-01T11:18:34.510Z,99044.78
2023-04-01T11:21:42.625Z,99051.88
2023-04-01T11:25:22.498Z,99042.38
2023-04-01T11:29:05.670Z,99057.06
2023-04-01T11:32:29.978Z,99078.63
2023-04-01T11:35:53.822Z,99076.09
2023-04-01T11:39:16.023Z,99077.03
2023-04-01T11:43:33.594Z,99085.97
2023-04-01T11:47:22.638Z,99091.19
2023-04-01T11:50:54.218Z,99093.22
2023-04-01T11:54:20.985Z,99075.78
2023-04-01T11:57:41.971Z,99088.00
2023-04-01T12:01:08.055Z,99085.19
2023-04-01T12:04:29.113Z,99070.94
2023-04-01T12:07:45.363Z,99075.94
2023-04-01T12:11:06.607Z,99077.34
2023-04-01T12:14:33.892Z,99078.16
2023-04-01T12:18:16.413Z,99078.88
2023-04-01T12:21:38.468Z,99079.69
2023-04-01T12:25:02.582Z,99077.50
2023-04-01T12:28:33.532Z,99083.38
2023-04-01T12:32:08.800Z,99073.78
2023-04-01T12:35:38.377Z,99084.94
2023-04-01T12:38:49.682Z,99082.88
2023-04-01T12:42:04.089Z,99080.66
2023-04-01T12:45:30.650Z,99063.63
2023-04-01T12:49:07.634Z,99068.63
2023-04-01T12:52:36.133Z,99071.78
2023-04-01T12:55:44.204Z,99065.25
2023-04-01T12:59:05.641Z,99067.06
2023-04-01T13:02:15.410Z,99062.16
2023-04-01T13:05:48.060Z,99054.44
2023-04-01T13:09:08.282Z,99056.31
2023-04-01T13:12:32.216Z,99051.69
2023-04-01T13:15:37.617Z,99052.34
2023-04-01T13:18:58.918Z,99047.13
2023-04-01T13:22:07.803Z,99060.16
2023-04-01T13:25:37.614Z,99052.41
2023-04-01T13:28:57.259Z,99037.94
2023-04-01T13:32:40.872Z,99050.31
2023-04-01T13:36:08.884Z,99057.06
2023-04-01T13:39:37.334Z,99054.94
2023-04-01T13:42:46.725Z,99056.56
2023-04-01T13:45:49.160Z,99062.00
2023-04-01T13:49:25.053Z,99069.59
2023-04-01T13:52:32.847Z,99059.34
2023-04-01T13:56:16.828Z,99070.66
2023-04-01T13:59:27.941Z,99074.78
2023-04-01T14:02:36.452Z,99067.56
2023-04-01T14:06:13.772Z,99054.41
2023-04-01T14:09:31.184Z,99068.19
2023-04-01T14:12:53.658Z,99073.75
2023-04-01T14:16:25.518Z,99078.31
2023-04-01T14:19:52.925Z,99066.31
2023-04-01T14:23:20.269Z,99066.22
2023-04-01T14:26:43.854Z,99073.69
2023-04-01T14:30:01.211Z,99066.41
2023-04-01T14:33:29.555Z,99069.78
2023-04-01T14:36:56.609Z,99065.50
2023-04-01T14:40:24.344Z,99062.00
2023-04-01T14:43:54.264Z,99061.38
2023-04-01T14:47:15.074Z,99064.97
2023-04-01T14:50:23.706Z,99061.72
2023-04-01T14:53:39.897Z,99059.44
2023-04-01T14:56:45.958Z,99054.28
2023-04-01T14:59:51.233Z,99059.47
2023-04-01T15:03:04.851Z,99058.66
2023-04-01T15:06:49.915Z,99058.78
2023-04-01T15:10:09.140Z,99053.00
2023-04-01T15:13:50.421Z,99070.50
2023-04-01T15:17:00.450Z,99069.63
2023-04-01T15:20:26.694Z,99067.03
2023-04-01T15:23:38.555Z,99063.63
2023-04-01T15:27:05.783Z,99072.72
2023-04-01T15:30:37.460Z,99073.75
2023-04-01T15:33:48.529Z,99081.44
2023-04-01T15:37:20.951Z,99075.94
2023-04-01T15:40:46.586Z,99072.94
2023-04-01T15:43:53.247Z,99075.00
2023-04-01T15:46:58.986Z,99082.22
2023-04-01T15:50:40.745Z,99079.94
2023-04-01T15:53:48.662Z,99083.00
2023-04-01T15:56:55.613Z,99082.25
2023-04-01T16:00:09.955Z,99076.84
2023-04-01T16:03:24.148Z,99086.94
2023-04-01T16:06:48.195Z,99081.94
2023-04-01T16:09:58.050Z,99081.16
2023-04-01T16:13:20.595Z,99082.78
2023-04-01T16:16:55.237Z,99092.91
2023-04-01T16:20:14.371Z,99093.81
2023-04-01T16:23:38.452Z,99104.31
2023-04-01T16:27:04.696Z,99102.28
2023-04-01T16:31:04.760Z,99112.59
2023-04-01T16:34:28.380Z,99116.50
2023-04-01T16:37:37.268Z,99107.13
2023-04-01T16:40:48.612Z,99115.66
2023-04-01T16:43:56.498Z,99110.84
2023-04-01T16:47:08.763Z,99121.44
2023-04-01T16:50:26.314Z,99129.28
2023-04-01T16:53:48.694Z,99124.38
2023-04-01T16:57:17.314Z,99125.38
2023-04-01T17:00:39.362Z,99133.25
2023-04-01T17:03:46.883Z,99136.63
2023-04-01T17:07:00.437Z,99139.38
2023-04-01T17:10:38.453Z,99134.94
2023-04-01T17:13:59.641Z,99140.34
2023-04-01T17:17:20.425Z,99146.69
2023-04-01T17:20:41.038Z,99153.94
2023-04-01T17:23:55.854Z,99154.16
2023-04-01T17:27:08.389Z,99152.88
2023-04-01T17:30:34.094Z,99156.41
2023-04-01T17:34:06.496Z,99157.28
2023-04-01T17:37:29.521Z,99165.78
2023-04-01T17:40:36.866Z,99166.66
2023-04-01T17:43:51.549Z,99171.38
2023-04-01T17:47:12.946Z,99178.84
2023-04-01T17:50:17.846Z,99169.09
2023-04-01T17:53:34.983Z,99175.13
2023-04-01T17:56:53.824Z,99177.19
2023-04-01T18:00:12.797Z,99187.16
2023-04-01T18:03:43.022Z,99189.41
2023-04-01T18:07:08.711Z,99188.50
2023-04-01T18:10:32.757Z,99199.13
2023-04-01T18:13:46.877Z,99196.34
2023-04-01T18:17:14.562Z,99204.13
2023-04-01T18:20:52.170Z,99202.88
2023-04-01T18:24:15.728Z,99209.56
2023-04-01T18:27:46.997Z,99218.72
2023-04-01T18:31:11.101Z,99224.31
2023-04-01T18:34:28.594Z,99222.59
2023-04-01T18:38:13.804Z,99227.28
2023-04-01T18:41:37.409Z,99225.25
2023-04-01T18:44:49.243Z,99235.97
2023-04-01T18:48:09.602Z,99233.00
2023-04-01T18:51:18.698Z,99241.06
2023-04-01T18:54:28.263Z,99245.75
2023-04-01T18:58:12.301Z,99245.72
2023-04-01T19:01:17.499Z,99247.59
2023-04-01T19:04:24.726Z,99240.91
2023-04-01T19:07:48.002Z,99242.44
2023-04-01T19:11:23.199Z,99245.88
2023-04-01T19:14:40.658Z,99234.81
2023-04-01T19:18:19.907Z,99248.78
2023-04-01T19:21:48.860Z,99245.97
2023-04-01T19:24:51.229Z,99242.09
2023-04-01T19:28:02.446Z,99243.19
2023-04-01T19:31:21.826Z,99249.38
2023-04-01T19:34:54.157Z,99251.38
2023-04-01T19:38:16.841Z,99252.44
2023-04-01T19:41:36.435Z,99261.00
2023-04-01T19:44:59.950Z,99264.69
2023-04-01T19:48:19.612Z,99258.75
2023-04-01T19:51:36.760Z,99262.13
2023-04-01T19:54:50.640Z,99269.31
2023-04-01T19:58:06.553Z,99271.84
2023-04-01T20:01:16.197Z,99262.00
2023-04-01T20:04:27.360Z,99263.13
2023-04-01T20:08:19.199Z,99266.38
2023-04-01T20:11:46.180Z,99272.00
2023-04-01T20:14:52.234Z,99269.63
2023-04-01T20:17:59.241Z,99273.03
2023-04-01T20:21:32.830Z,99264.72
2023-04-01T20:24:47.130Z,99269.66
2023-04-01T20:28:11.062Z,99262.50
2023-04-01T20:31:32.067Z,99260.31
2023-04-01T20:35:00.053Z,99265.09
2023-04-01T20:38:13.979Z,99269.25
2023-04-01T20:41:23.028Z,99270.38
2023-04-01T20:44:46.127Z,99280.69
2023-04-01T20:48:06.602Z,99284.31
2023-04-01T20:51:25.758Z,99284.34
2023-04-01T20:54:44.986Z,99291.41
2023-04-01T20:58:11.581Z,99294.16
2023-04-01T21:01:23.501Z,99301.75
2023-04-01T21:04:29.632Z,99308.94
2023-04-01T21:07:53.367Z,99306.97
2023-04-01T21:11:02.548Z,99305.84
2023-04-01T21:14:10.757Z,99303.75
2023-04-01T21:17:48.364Z,99302.94
2023-04-01T21:20:58.324Z,99309.94
2023-04-01T21:24:09.715Z,99308.25
2023-04-01T21:27:30.513Z,99313.41
2023-04-01T21:31:11.346Z,99325.28
2023-04-01T21:34:19.663Z,99330.75
2023-04-01T21:37:54.859Z,99321.66
2023-04-01T21:40:57.141Z,99317.41
2023-04-01T21:44:23.295Z,99324.41
2023-04-01T21:47:43.968Z,99325.88
2023-04-01T21:50:54.955Z,99323.97
2023-04-01T21:54:09.060Z,99328.81
2023-04-01T21:57:29.045Z,99334.13
2023-04-01T22:00:55.233Z,99328.03
2023-04-01T22:04:43.867Z,99327.53
2023-04-01T22:07:54.996Z,99336.09
2023-04-01T22:11:33.576Z,99320.03
2023-04-01T22:14:50.896Z,99331.91
2023-04-01T22:18:04.365Z,99328.31
2023-04-01T22:21:10.879Z,99332.81
2023-04-01T22:24:22.977Z,99339.59
2023-04-01T22:27:58.497Z,99336.59
2023-04-01T22:31:02.575Z,99347.34
2023-04-01T22:34:19.126Z,99348.56
2023-04-01T22:37:26.082Z,99348.44
2023-04-01T22:40:31.170Z,99357.03
2023-04-01T22:43:42.743Z,99360.63
2023-04-01T22:47:00.469Z,99357.34
2023-04-01T22:50:23.076Z,99374.38
2023-04-01T22:53:47.472Z,99380.63
2023-04-01T22:56:56.148Z,99384.03
2023-04-01T23:00:20.127Z,99379.38
2023-04-01T23:03:34.154Z,99376.25
2023-04-01T23:06:42.435Z,99373.91
2023-04-01T23:09:45.116Z,99378.72
2023-04-01T23:12:50.171Z,99379.16
2023-04-01T23:15:54.960Z,99383.78
2023-04-01T23:19:02.794Z,99380.75
2023-04-01T23:22:26.370Z,99388.63
2023-04-01T23:25:47.341Z,99389.88
2023-04-01T23:28:51.803Z,99393.31
2023-04-01T23:32:05.382Z,99396.69
2023-04-01T23:35:18.004Z,99405.25
2023-04-01T23:38:23.411Z,99394.66
2023-04-01T23:41:32.513Z,99402.53
2023-04-01T23:44:37.216Z,99400.38
2023-04-01T23:47:41.865Z,99392.72
2023-04-01T23:50:46.238Z,99399.03
2023-04-01T23:54:11.749Z,99393.47
2023-04-01T23:57:19.069Z,99405.47
